sensor_id;sensor_type;location;lat;lon;timestamp;temperature;humidity
44190;DHT22;29856;52.144;5.430;2022-11-12T00:01:37;9.20;99.90
44190;DHT22;29856;52.144;5.430;2022-11-12T00:04:03;9.30;99.90
44190;DHT22;29856;52.144;5.430;2022-11-12T00:06:28;9.40;99.90
44190;DHT22;29856;52.144;5.430;2022-11-12T00:08:54;9.50;99.90
44190;DHT22;29856;52.144;5.430;2022-11-12T00:11:19;9.30;99.90
44190;DHT22;29856;52.144;5.430;2022-11-12T00:13:45;9.40;99.90
44190;DHT22;29856;52.144;5.430;2022-11-12T00:16:10;9.40;99.90
44190;DHT22;29856;52.144;5.430;2022-11-12T00:18:35;9.50;99.90
44190;DHT22;29856;52.144;5.430;2022-11-12T00:21:01;9.40;99.90
44190;DHT22;29856;52.144;5.430;2022-11-12T00:23:26;9.00;99.90
44190;DHT22;29856;52.144;5.430;2022-11-12T00:25:59;8.60;99.90
44190;DHT22;29856;52.144;5.430;2022-11-12T00:28:25;8.30;99.90
44190;DHT22;29856;52.144;5.430;2022-11-12T00:30:51;8.10;99.90
44190;DHT22;29856;52.144;5.430;2022-11-12T00:33:16;7.80;99.90
44190;DHT22;29856;52.144;5.430;2022-11-12T00:35:42;7.60;99.90
44190;DHT22;29856;52.144;5.430;2022-11-12T00:38:07;7.90;99.90
44190;DHT22;29856;52.144;5.430;2022-11-12T00:40:32;7.90;99.90
44190;DHT22;29856;52.144;5.430;2022-11-12T00:42:58;8.00;99.90
44190;DHT22;29856;52.144;5.430;2022-11-12T00:45:23;7.80;99.90
44190;DHT22;29856;52.144;5.430;2022-11-12T00:47:52;8.10;99.90
44190;DHT22;29856;52.144;5.430;2022-11-12T00:50:17;7.80;99.90
44190;DHT22;29856;52.144;5.430;2022-11-12T00:52:43;7.80;99.90
44190;DHT22;29856;52.144;5.430;2022-11-12T00:55:09;7.60;99.90
44190;DHT22;29856;52.144;5.430;2022-11-12T00:57:34;7.80;99.90
44190;DHT22;29856;52.144;5.430;2022-11-12T01:00:00;8.00;99.90
44190;DHT22;29856;52.144;5.430;2022-11-12T01:02:25;8.30;99.90
44190;DHT22;29856;52.144;5.430;2022-11-12T01:04:50;8.20;99.90
44190;DHT22;29856;52.144;5.430;2022-11-12T01:07:16;8.10;99.90
44190;DHT22;29856;52.144;5.430;2022-11-12T01:09:41;7.80;99.90
44190;DHT22;29856;52.144;5.430;2022-11-12T01:12:07;7.60;99.90
44190;DHT22;29856;52.144;5.430;2022-11-12T01:14:32;7.70;99.90
44190;DHT22;29856;52.144;5.430;2022-11-12T01:16:58;7.80;99.90
44190;DHT22;29856;52.144;5.430;2022-11-12T01:19:24;7.90;99.90
44190;DHT22;29856;52.144;5.430;2022-11-12T01:21:49;7.90;99.90
44190;DHT22;29856;52.144;5.430;2022-11-12T01:24:15;7.70;99.90
44190;DHT22;29856;52.144;5.430;2022-11-12T01:26:40;7.50;99.90
44190;DHT22;29856;52.144;5.430;2022-11-12T01:29:06;7.40;99.90
44190;DHT22;29856;52.144;5.430;2022-11-12T01:31:34;7.20;99.90
44190;DHT22;29856;52.144;5.430;2022-11-12T01:34:02;7.10;99.90
44190;DHT22;29856;52.144;5.430;2022-11-12T01:36:34;7.20;99.90
44190;DHT22;29856;52.144;5.430;2022-11-12T01:39:00;7.00;99.90
44190;DHT22;29856;52.144;5.430;2022-11-12T01:41:29;7.10;99.90
44190;DHT22;29856;52.144;5.430;2022-11-12T01:44:20;7.50;99.90
44190;DHT22;29856;52.144;5.430;2022-11-12T01:47:05;7.60;99.90
44190;DHT22;29856;52.144;5.430;2022-11-12T01:49:57;7.80;99.90
44190;DHT22;29856;52.144;5.430;2022-11-12T01:52:30;7.90;99.90
44190;DHT22;29856;52.144;5.430;2022-11-12T01:55:00;8.00;99.90
44190;DHT22;29856;52.144;5.430;2022-11-12T01:57:30;8.10;99.90
44190;DHT22;29856;52.144;5.430;2022-11-12T02:00:02;8.10;99.90
44190;DHT22;29856;52.144;5.430;2022-11-12T02:02:29;8.20;99.90
44190;DHT22;29856;52.144;5.430;2022-11-12T02:04:55;8.20;99.90
44190;DHT22;29856;52.144;5.430;2022-11-12T02:07:22;8.20;99.90
44190;DHT22;29856;52.144;5.430;2022-11-12T02:09:49;8.20;99.90
44190;DHT22;29856;52.144;5.430;2022-11-12T02:12:14;8.30;99.90
44190;DHT22;29856;52.144;5.430;2022-11-12T02:14:40;8.30;99.90
44190;DHT22;29856;52.144;5.430;2022-11-12T02:17:05;8.40;99.90
44190;DHT22;29856;52.144;5.430;2022-11-12T02:19:31;8.40;99.90
44190;DHT22;29856;52.144;5.430;2022-11-12T02:22:00;8.50;99.90
44190;DHT22;29856;52.144;5.430;2022-11-12T02:26:54;8.50;99.90
44190;DHT22;29856;52.144;5.430;2022-11-12T02:29:21;8.60;99.90
44190;DHT22;29856;52.144;5.430;2022-11-12T02:31:46;8.50;99.90
44190;DHT22;29856;52.144;5.430;2022-11-12T02:34:12;8.60;99.90
44190;DHT22;29856;52.144;5.430;2022-11-12T02:36:37;8.50;99.90
44190;DHT22;29856;52.144;5.430;2022-11-12T02:39:03;8.40;99.90
44190;DHT22;29856;52.144;5.430;2022-11-12T02:41:29;8.40;99.90
44190;DHT22;29856;52.144;5.430;2022-11-12T02:43:55;8.40;99.90
44190;DHT22;29856;52.144;5.430;2022-11-12T02:46:20;8.30;99.90
44190;DHT22;29856;52.144;5.430;2022-11-12T02:48:45;8.00;99.90
44190;DHT22;29856;52.144;5.430;2022-11-12T02:51:11;7.80;99.90
44190;DHT22;29856;52.144;5.430;2022-11-12T02:53:36;7.80;99.90
44190;DHT22;29856;52.144;5.430;2022-11-12T02:56:02;7.70;99.90
44190;DHT22;29856;52.144;5.430;2022-11-12T02:58:28;7.90;99.90
44190;DHT22;29856;52.144;5.430;2022-11-12T03:00:55;8.10;99.90
44190;DHT22;29856;52.144;5.430;2022-11-12T03:03:20;8.20;99.90
44190;DHT22;29856;52.144;5.430;2022-11-12T03:05:57;8.30;99.90
44190;DHT22;29856;52.144;5.430;2022-11-12T03:08:23;8.10;99.90
44190;DHT22;29856;52.144;5.430;2022-11-12T03:10:49;7.80;99.90
44190;DHT22;29856;52.144;5.430;2022-11-12T03:13:15;8.00;99.90
44190;DHT22;29856;52.144;5.430;2022-11-12T03:15:41;8.10;99.90
44190;DHT22;29856;52.144;5.430;2022-11-12T03:18:06;8.20;99.90
44190;DHT22;29856;52.144;5.430;2022-11-12T03:20:32;8.20;99.90
44190;DHT22;29856;52.144;5.430;2022-11-12T03:23:00;8.20;99.90
44190;DHT22;29856;52.144;5.430;2022-11-12T03:25:26;8.30;99.90
44190;DHT22;29856;52.144;5.430;2022-11-12T03:28:00;8.30;99.90
44190;DHT22;29856;52.144;5.430;2022-11-12T03:30:27;8.30;99.90
44190;DHT22;29856;52.144;5.430;2022-11-12T03:32:53;8.30;99.90
44190;DHT22;29856;52.144;5.430;2022-11-12T03:35:18;8.30;99.90
44190;DHT22;29856;52.144;5.430;2022-11-12T03:37:44;8.30;99.90
44190;DHT22;29856;52.144;5.430;2022-11-12T03:40:10;8.40;99.90
44190;DHT22;29856;52.144;5.430;2022-11-12T03:42:35;8.40;99.90
44190;DHT22;29856;52.144;5.430;2022-11-12T03:45:00;8.40;99.90
44190;DHT22;29856;52.144;5.430;2022-11-12T03:47:26;8.40;99.90
44190;DHT22;29856;52.144;5.430;2022-11-12T03:49:51;8.40;99.90
44190;DHT22;29856;52.144;5.430;2022-11-12T03:52:17;8.40;99.90
44190;DHT22;29856;52.144;5.430;2022-11-12T03:54:42;8.50;99.90
44190;DHT22;29856;52.144;5.430;2022-11-12T03:57:08;8.60;99.90
44190;DHT22;29856;52.144;5.430;2022-11-12T03:59:33;8.60;99.90
44190;DHT22;29856;52.144;5.430;2022-11-12T04:01:58;8.50;99.90
44190;DHT22;29856;52.144;5.430;2022-11-12T04:04:24;8.40;99.90
44190;DHT22;29856;52.144;5.430;2022-11-12T04:06:49;8.30;99.90
44190;DHT22;29856;52.144;5.430;2022-11-12T04:09:15;8.10;99.90
44190;DHT22;29856;52.144;5.430;2022-11-12T04:11:40;8.20;99.90
44190;DHT22;29856;52.144;5.430;2022-11-12T04:14:06;8.20;99.90
44190;DHT22;29856;52.144;5.430;2022-11-12T04:16:31;8.30;99.90
44190;DHT22;29856;52.144;5.430;2022-11-12T04:18:58;8.20;99.90
44190;DHT22;29856;52.144;5.430;2022-11-12T04:21:31;7.90;99.90
44190;DHT22;29856;52.144;5.430;2022-11-12T04:23:57;7.50;99.90
44190;DHT22;29856;52.144;5.430;2022-11-12T04:26:22;7.70;99.90
44190;DHT22;29856;52.144;5.430;2022-11-12T04:28:48;7.70;99.90
44190;DHT22;29856;52.144;5.430;2022-11-12T04:31:13;7.50;99.90
44190;DHT22;29856;52.144;5.430;2022-11-12T04:33:38;7.20;99.90
44190;DHT22;29856;52.144;5.430;2022-11-12T04:36:04;7.50;99.90
44190;DHT22;29856;52.144;5.430;2022-11-12T04:38:29;7.90;99.90
44190;DHT22;29856;52.144;5.430;2022-11-12T04:40:55;8.20;99.90
44190;DHT22;29856;52.144;5.430;2022-11-12T04:43:20;8.40;99.90
44190;DHT22;29856;52.144;5.430;2022-11-12T04:45:48;8.40;99.90
44190;DHT22;29856;52.144;5.430;2022-11-12T04:48:15;8.00;99.90
44190;DHT22;29856;52.144;5.430;2022-11-12T04:50:42;7.70;99.90
44190;DHT22;29856;52.144;5.430;2022-11-12T04:53:08;7.60;99.90
44190;DHT22;29856;52.144;5.430;2022-11-12T04:55:34;7.60;99.90
44190;DHT22;29856;52.144;5.430;2022-11-12T04:57:59;7.30;99.90
44190;DHT22;29856;52.144;5.430;2022-11-12T05:00:25;7.00;99.90
44190;DHT22;29856;52.144;5.430;2022-11-12T05:02:50;6.70;99.90
44190;DHT22;29856;52.144;5.430;2022-11-12T05:05:16;6.60;99.90
44190;DHT22;29856;52.144;5.430;2022-11-12T05:07:42;6.70;99.90
44190;DHT22;29856;52.144;5.430;2022-11-12T05:10:08;6.90;99.90
44190;DHT22;29856;52.144;5.430;2022-11-12T05:12:34;7.00;99.90
44190;DHT22;29856;52.144;5.430;2022-11-12T05:14:59;6.80;99.90
44190;DHT22;29856;52.144;5.430;2022-11-12T05:17:25;6.50;99.90
44190;DHT22;29856;52.144;5.430;2022-11-12T05:19:50;6.40;99.90
44190;DHT22;29856;52.144;5.430;2022-11-12T05:22:15;6.30;99.90
44190;DHT22;29856;52.144;5.430;2022-11-12T05:24:42;6.20;99.90
44190;DHT22;29856;52.144;5.430;2022-11-12T05:27:16;6.20;99.90
44190;DHT22;29856;52.144;5.430;2022-11-12T05:29:42;6.20;99.90
44190;DHT22;29856;52.144;5.430;2022-11-12T05:32:10;6.50;99.90
44190;DHT22;29856;52.144;5.430;2022-11-12T05:34:36;7.00;99.90
44190;DHT22;29856;52.144;5.430;2022-11-12T05:37:03;7.20;99.90
44190;DHT22;29856;52.144;5.430;2022-11-12T05:39:29;7.40;99.90
44190;DHT22;29856;52.144;5.430;2022-11-12T05:41:55;7.50;99.90
44190;DHT22;29856;52.144;5.430;2022-11-12T05:44:20;7.70;99.90
44190;DHT22;29856;52.144;5.430;2022-11-12T05:46:46;7.70;99.90
44190;DHT22;29856;52.144;5.430;2022-11-12T05:49:12;7.60;99.90
44190;DHT22;29856;52.144;5.430;2022-11-12T05:51:37;7.60;99.90
44190;DHT22;29856;52.144;5.430;2022-11-12T05:54:03;7.60;99.90
44190;DHT22;29856;52.144;5.430;2022-11-12T05:56:29;7.50;99.90
44190;DHT22;29856;52.144;5.430;2022-11-12T05:58:54;7.40;99.90
44190;DHT22;29856;52.144;5.430;2022-11-12T06:01:20;7.60;99.90
44190;DHT22;29856;52.144;5.430;2022-11-12T06:03:46;7.70;99.90
44190;DHT22;29856;52.144;5.430;2022-11-12T06:06:11;7.80;99.90
44190;DHT22;29856;52.144;5.430;2022-11-12T06:08:37;7.90;99.90
44190;DHT22;29856;52.144;5.430;2022-11-12T06:11:02;7.80;99.90
44190;DHT22;29856;52.144;5.430;2022-11-12T06:13:28;8.00;99.90
44190;DHT22;29856;52.144;5.430;2022-11-12T06:15:54;8.10;99.90
44190;DHT22;29856;52.144;5.430;2022-11-12T06:18:20;8.00;99.90
44190;DHT22;29856;52.144;5.430;2022-11-12T06:20:45;7.90;99.90
44190;DHT22;29856;52.144;5.430;2022-11-12T06:23:11;8.00;99.90
44190;DHT22;29856;52.144;5.430;2022-11-12T06:25:36;8.00;99.90
44190;DHT22;29856;52.144;5.430;2022-11-12T06:28:02;8.10;99.90
44190;DHT22;29856;52.144;5.430;2022-11-12T06:30:27;7.80;99.90
44190;DHT22;29856;52.144;5.430;2022-11-12T06:32:53;7.70;99.90
44190;DHT22;29856;52.144;5.430;2022-11-12T06:35:18;7.80;99.90
44190;DHT22;29856;52.144;5.430;2022-11-12T06:37:45;7.90;99.90
44190;DHT22;29856;52.144;5.430;2022-11-12T06:40:11;7.90;99.90
44190;DHT22;29856;52.144;5.430;2022-11-12T06:42:37;7.90;99.90
44190;DHT22;29856;52.144;5.430;2022-11-12T06:45:02;7.80;99.90
44190;DHT22;29856;52.144;5.430;2022-11-12T06:47:28;7.80;99.90
44190;DHT22;29856;52.144;5.430;2022-11-12T06:49:53;7.60;99.90
44190;DHT22;29856;52.144;5.430;2022-11-12T06:52:19;7.60;99.90
44190;DHT22;29856;52.144;5.430;2022-11-12T06:54:44;7.80;99.90
44190;DHT22;29856;52.144;5.430;2022-11-12T06:57:10;8.00;99.90
44190;DHT22;29856;52.144;5.430;2022-11-12T06:59:35;8.10;99.90
44190;DHT22;29856;52.144;5.430;2022-11-12T07:02:01;8.00;99.90
44190;DHT22;29856;52.144;5.430;2022-11-12T07:04:26;8.00;99.90
44190;DHT22;29856;52.144;5.430;2022-11-12T07:06:52;8.10;99.90
44190;DHT22;29856;52.144;5.430;2022-11-12T07:09:17;8.00;99.90
44190;DHT22;29856;52.144;5.430;2022-11-12T07:11:43;8.00;99.90
44190;DHT22;29856;52.144;5.430;2022-11-12T07:14:08;8.00;99.90
44190;DHT22;29856;52.144;5.430;2022-11-12T07:16:34;8.10;99.90
44190;DHT22;29856;52.144;5.430;2022-11-12T07:19:00;7.70;99.90
44190;DHT22;29856;52.144;5.430;2022-11-12T07:21:25;7.30;99.90
44190;DHT22;29856;52.144;5.430;2022-11-12T07:23:51;7.10;99.90
44190;DHT22;29856;52.144;5.430;2022-11-12T07:26:19;7.50;99.90
44190;DHT22;29856;52.144;5.430;2022-11-12T07:28:45;7.50;99.90
44190;DHT22;29856;52.144;5.430;2022-11-12T07:31:12;7.20;99.90
44190;DHT22;29856;52.144;5.430;2022-11-12T07:33:39;6.80;99.90
44190;DHT22;29856;52.144;5.430;2022-11-12T07:36:06;7.00;99.90
44190;DHT22;29856;52.144;5.430;2022-11-12T07:38:34;6.80;99.90
44190;DHT22;29856;52.144;5.430;2022-11-12T07:41:05;6.60;99.90
44190;DHT22;29856;52.144;5.430;2022-11-12T07:43:32;6.50;99.90
44190;DHT22;29856;52.144;5.430;2022-11-12T07:46:04;6.40;99.90
44190;DHT22;29856;52.144;5.430;2022-11-12T07:48:30;6.30;99.90
44190;DHT22;29856;52.144;5.430;2022-11-12T07:51:10;6.20;99.90
44190;DHT22;29856;52.144;5.430;2022-11-12T07:53:36;6.10;99.90
44190;DHT22;29856;52.144;5.430;2022-11-12T07:56:03;6.00;99.90
44190;DHT22;29856;52.144;5.430;2022-11-12T07:58:31;6.10;99.90
44190;DHT22;29856;52.144;5.430;2022-11-12T08:00:57;6.40;99.90
44190;DHT22;29856;52.144;5.430;2022-11-12T08:03:30;6.60;99.90
44190;DHT22;29856;52.144;5.430;2022-11-12T08:05:58;6.50;99.90
44190;DHT22;29856;52.144;5.430;2022-11-12T08:08:24;6.40;99.90
44190;DHT22;29856;52.144;5.430;2022-11-12T08:10:53;6.30;99.90
44190;DHT22;29856;52.144;5.430;2022-11-12T08:13:19;6.30;99.90
44190;DHT22;29856;52.144;5.430;2022-11-12T08:15:44;6.30;99.90
44190;DHT22;29856;52.144;5.430;2022-11-12T08:18:10;6.30;99.90
44190;DHT22;29856;52.144;5.430;2022-11-12T08:20:35;6.30;99.90
44190;DHT22;29856;52.144;5.430;2022-11-12T08:23:01;6.30;99.90
44190;DHT22;29856;52.144;5.430;2022-11-12T08:25:26;6.30;99.90
44190;DHT22;29856;52.144;5.430;2022-11-12T08:27:55;6.40;99.90
44190;DHT22;29856;52.144;5.430;2022-11-12T08:30:21;6.40;99.90
44190;DHT22;29856;52.144;5.430;2022-11-12T08:32:46;6.50;99.90
44190;DHT22;29856;52.144;5.430;2022-11-12T08:35:12;6.50;99.90
44190;DHT22;29856;52.144;5.430;2022-11-12T08:37:38;6.50;99.90
44190;DHT22;29856;52.144;5.430;2022-11-12T08:40:04;6.60;99.90
44190;DHT22;29856;52.144;5.430;2022-11-12T08:42:30;6.60;99.90
44190;DHT22;29856;52.144;5.430;2022-11-12T08:44:55;6.70;99.90
44190;DHT22;29856;52.144;5.430;2022-11-12T08:47:21;6.70;99.90
44190;DHT22;29856;52.144;5.430;2022-11-12T08:49:46;6.70;99.90
44190;DHT22;29856;52.144;5.430;2022-11-12T08:52:12;6.80;99.90
44190;DHT22;29856;52.144;5.430;2022-11-12T08:54:37;6.80;99.90
44190;DHT22;29856;52.144;5.430;2022-11-12T08:57:03;6.90;99.90
44190;DHT22;29856;52.144;5.430;2022-11-12T08:59:28;7.00;99.90
44190;DHT22;29856;52.144;5.430;2022-11-12T09:01:54;7.10;99.90
44190;DHT22;29856;52.144;5.430;2022-11-12T09:04:19;7.10;99.90
44190;DHT22;29856;52.144;5.430;2022-11-12T09:06:44;7.20;99.90
44190;DHT22;29856;52.144;5.430;2022-11-12T09:09:10;7.40;99.90
44190;DHT22;29856;52.144;5.430;2022-11-12T09:11:35;7.50;99.90
44190;DHT22;29856;52.144;5.430;2022-11-12T09:14:01;7.60;99.90
44190;DHT22;29856;52.144;5.430;2022-11-12T09:16:26;7.70;99.90
44190;DHT22;29856;52.144;5.430;2022-11-12T09:18:52;7.90;99.90
44190;DHT22;29856;52.144;5.430;2022-11-12T09:21:17;8.00;99.90
44190;DHT22;29856;52.144;5.430;2022-11-12T09:23:42;8.10;99.90
44190;DHT22;29856;52.144;5.430;2022-11-12T09:26:08;8.30;99.90
44190;DHT22;29856;52.144;5.430;2022-11-12T09:28:33;8.40;99.90
44190;DHT22;29856;52.144;5.430;2022-11-12T09:30:59;8.50;99.90
44190;DHT22;29856;52.144;5.430;2022-11-12T09:33:31;8.60;99.90
44190;DHT22;29856;52.144;5.430;2022-11-12T09:36:00;8.80;99.90
44190;DHT22;29856;52.144;5.430;2022-11-12T09:38:26;8.90;99.90
44190;DHT22;29856;52.144;5.430;2022-11-12T09:43:29;9.30;99.90
44190;DHT22;29856;52.144;5.430;2022-11-12T09:46:05;9.40;99.90
44190;DHT22;29856;52.144;5.430;2022-11-12T09:48:38;9.50;99.90
44190;DHT22;29856;52.144;5.430;2022-11-12T09:51:12;9.60;99.90
44190;DHT22;29856;52.144;5.430;2022-11-12T09:53:57;9.80;99.90
44190;DHT22;29856;52.144;5.430;2022-11-12T09:56:24;9.80;99.90
44190;DHT22;29856;52.144;5.430;2022-11-12T09:58:50;9.90;99.90
44190;DHT22;29856;52.144;5.430;2022-11-12T10:01:17;10.00;99.90
44190;DHT22;29856;52.144;5.430;2022-11-12T10:04:00;10.10;99.90
44190;DHT22;29856;52.144;5.430;2022-11-12T10:06:34;10.10;99.90
44190;DHT22;29856;52.144;5.430;2022-11-12T10:09:15;10.30;99.90
44190;DHT22;29856;52.144;5.430;2022-11-12T10:12:14;10.40;99.90
44190;DHT22;29856;52.144;5.430;2022-11-12T10:22:47;10.70;99.90
44190;DHT22;29856;52.144;5.430;2022-11-12T10:25:18;10.80;99.90
44190;DHT22;29856;52.144;5.430;2022-11-12T10:27:44;11.00;99.90
44190;DHT22;29856;52.144;5.430;2022-11-12T10:30:21;11.10;99.90
44190;DHT22;29856;52.144;5.430;2022-11-12T10:32:48;11.20;99.90
44190;DHT22;29856;52.144;5.430;2022-11-12T10:35:22;11.30;99.90
44190;DHT22;29856;52.144;5.430;2022-11-12T10:37:59;11.40;99.90
44190;DHT22;29856;52.144;5.430;2022-11-12T10:40:38;11.50;99.90
44190;DHT22;29856;52.144;5.430;2022-11-12T10:43:08;11.50;99.90
44190;DHT22;29856;52.144;5.430;2022-11-12T10:45:45;11.60;99.90
44190;DHT22;29856;52.144;5.430;2022-11-12T10:50:49;11.80;99.90
44190;DHT22;29856;52.144;5.430;2022-11-12T10:53:32;11.80;99.90
44190;DHT22;29856;52.144;5.430;2022-11-12T10:56:03;11.90;99.90
44190;DHT22;29856;52.144;5.430;2022-11-12T10:58:31;12.00;99.90
44190;DHT22;29856;52.144;5.430;2022-11-12T11:01:02;12.10;99.90
44190;DHT22;29856;52.144;5.430;2022-11-12T11:08:37;12.40;99.90
44190;DHT22;29856;52.144;5.430;2022-11-12T11:13:41;12.50;99.90
44190;DHT22;29856;52.144;5.430;2022-11-12T11:16:14;12.50;99.90
44190;DHT22;29856;52.144;5.430;2022-11-12T11:18:41;12.60;99.90
44190;DHT22;29856;52.144;5.430;2022-11-12T11:29:50;12.80;99.90
44190;DHT22;29856;52.144;5.430;2022-11-12T11:37:59;13.10;99.90
44190;DHT22;29856;52.144;5.430;2022-11-12T11:40:35;13.10;99.90
44190;DHT22;29856;52.144;5.430;2022-11-12T11:43:11;13.20;99.90
44190;DHT22;29856;52.144;5.430;2022-11-12T11:48:28;13.40;99.90
44190;DHT22;29856;52.144;5.430;2022-11-12T11:51:00;13.40;99.90
44190;DHT22;29856;52.144;5.430;2022-11-12T11:56:34;13.60;99.90
44190;DHT22;29856;52.144;5.430;2022-11-12T11:59:15;13.60;99.90
44190;DHT22;29856;52.144;5.430;2022-11-12T12:02:11;13.70;99.90
44190;DHT22;29856;52.144;5.430;2022-11-12T12:04:57;13.80;99.90
44190;DHT22;29856;52.144;5.430;2022-11-12T12:07:46;13.90;99.90
44190;DHT22;29856;52.144;5.430;2022-11-12T12:10:23;14.00;99.90
44190;DHT22;29856;52.144;5.430;2022-11-12T12:21:23;14.30;99.90
44190;DHT22;29856;52.144;5.430;2022-11-12T12:24:05;14.40;99.90
44190;DHT22;29856;52.144;5.430;2022-11-12T12:26:40;14.50;99.90
44190;DHT22;29856;52.144;5.430;2022-11-12T12:29:15;14.50;99.90
44190;DHT22;29856;52.144;5.430;2022-11-12T12:31:51;14.60;99.90
44190;DHT22;29856;52.144;5.430;2022-11-12T12:34:36;14.60;99.90
44190;DHT22;29856;52.144;5.430;2022-11-12T12:37:35;14.70;99.90
44190;DHT22;29856;52.144;5.430;2022-11-12T12:40:40;14.80;99.90
44190;DHT22;29856;52.144;5.430;2022-11-12T12:43:34;14.90;99.90
44190;DHT22;29856;52.144;5.430;2022-11-12T12:46:02;15.00;99.90
44190;DHT22;29856;52.144;5.430;2022-11-12T12:48:31;15.00;99.90
44190;DHT22;29856;52.144;5.430;2022-11-12T12:50:58;15.10;99.90
44190;DHT22;29856;52.144;5.430;2022-11-12T12:55:51;14.90;99.90
44190;DHT22;29856;52.144;5.430;2022-11-12T12:58:32;14.90;99.90
44190;DHT22;29856;52.144;5.430;2022-11-12T13:08:47;14.90;99.90
44190;DHT22;29856;52.144;5.430;2022-11-12T13:19:35;15.10;99.90
44190;DHT22;29856;52.144;5.430;2022-11-12T13:35:19;15.40;99.90
44190;DHT22;29856;52.144;5.430;2022-11-12T13:40:45;15.50;99.90
44190;DHT22;29856;52.144;5.430;2022-11-12T13:48:38;15.60;99.90
44190;DHT22;29856;52.144;5.430;2022-11-12T13:53:55;15.70;99.90
44190;DHT22;29856;52.144;5.430;2022-11-12T13:56:30;15.60;99.90
44190;DHT22;29856;52.144;5.430;2022-11-12T13:59:17;15.70;99.90
44190;DHT22;29856;52.144;5.430;2022-11-12T14:01:43;15.70;99.90
44190;DHT22;29856;52.144;5.430;2022-11-12T14:04:15;15.60;99.90
44190;DHT22;29856;52.144;5.430;2022-11-12T14:06:52;15.60;99.90
44190;DHT22;29856;52.144;5.430;2022-11-12T14:12:30;15.80;99.90
44190;DHT22;29856;52.144;5.430;2022-11-12T14:20:32;16.00;99.90
44190;DHT22;29856;52.144;5.430;2022-11-12T14:23:15;16.10;99.90
44190;DHT22;29856;52.144;5.430;2022-11-12T14:25:59;16.20;99.90
44190;DHT22;29856;52.144;5.430;2022-11-12T14:28:28;16.20;99.90
44190;DHT22;29856;52.144;5.430;2022-11-12T14:30:55;16.20;99.90
44190;DHT22;29856;52.144;5.430;2022-11-12T14:33:22;16.20;99.90
44190;DHT22;29856;52.144;5.430;2022-11-12T14:35:49;16.20;99.90
44190;DHT22;29856;52.144;5.430;2022-11-12T14:38:38;16.30;99.90
44190;DHT22;29856;52.144;5.430;2022-11-12T14:43:44;16.40;99.90
44190;DHT22;29856;52.144;5.430;2022-11-12T14:46:26;16.40;99.90
44190;DHT22;29856;52.144;5.430;2022-11-12T14:49:16;16.40;99.90
44190;DHT22;29856;52.144;5.430;2022-11-12T14:52:10;16.40;99.90
44190;DHT22;29856;52.144;5.430;2022-11-12T14:54:45;16.40;99.90
44190;DHT22;29856;52.144;5.430;2022-11-12T14:57:25;16.30;99.90
44190;DHT22;29856;52.144;5.430;2022-11-12T14:59:51;16.20;99.90
44190;DHT22;29856;52.144;5.430;2022-11-12T15:02:29;16.30;99.90
44190;DHT22;29856;52.144;5.430;2022-11-12T15:05:01;16.40;99.90
44190;DHT22;29856;52.144;5.430;2022-11-12T15:07:33;16.40;99.90
44190;DHT22;29856;52.144;5.430;2022-11-12T15:09:59;16.30;99.90
44190;DHT22;29856;52.144;5.430;2022-11-12T15:12:28;16.40;99.90
44190;DHT22;29856;52.144;5.430;2022-11-12T15:15:17;16.40;99.90
44190;DHT22;29856;52.144;5.430;2022-11-12T15:17:43;16.40;99.90
44190;DHT22;29856;52.144;5.430;2022-11-12T15:20:17;16.30;99.90
44190;DHT22;29856;52.144;5.430;2022-11-12T15:22:50;16.10;99.90
44190;DHT22;29856;52.144;5.430;2022-11-12T15:25:20;16.00;99.90
44190;DHT22;29856;52.144;5.430;2022-11-12T15:27:47;15.90;99.90
44190;DHT22;29856;52.144;5.430;2022-11-12T15:32:45;15.70;99.90
44190;DHT22;29856;52.144;5.430;2022-11-12T15:37:51;15.60;99.90
44190;DHT22;29856;52.144;5.430;2022-11-12T15:40:20;15.60;99.90
44190;DHT22;29856;52.144;5.430;2022-11-12T15:42:46;15.60;99.90
44190;DHT22;29856;52.144;5.430;2022-11-12T15:45:13;15.60;99.90
44190;DHT22;29856;52.144;5.430;2022-11-12T15:47:39;15.60;99.90
44190;DHT22;29856;52.144;5.430;2022-11-12T15:50:25;15.50;99.90
44190;DHT22;29856;52.144;5.430;2022-11-12T15:52:50;15.40;99.90
44190;DHT22;29856;52.144;5.430;2022-11-12T15:55:16;15.40;99.90
44190;DHT22;29856;52.144;5.430;2022-11-12T15:57:51;15.20;99.90
44190;DHT22;29856;52.144;5.430;2022-11-12T16:00:22;15.20;99.90
44190;DHT22;29856;52.144;5.430;2022-11-12T16:05:25;15.00;99.90
44190;DHT22;29856;52.144;5.430;2022-11-12T16:07:50;14.90;99.90
44190;DHT22;29856;52.144;5.430;2022-11-12T16:10:17;14.80;99.90
44190;DHT22;29856;52.144;5.430;2022-11-12T16:12:43;14.80;99.90
44190;DHT22;29856;52.144;5.430;2022-11-12T16:15:14;14.80;99.90
44190;DHT22;29856;52.144;5.430;2022-11-12T16:17:40;14.80;99.90
44190;DHT22;29856;52.144;5.430;2022-11-12T16:20:24;14.80;99.90
44190;DHT22;29856;52.144;5.430;2022-11-12T16:22:50;14.80;99.90
44190;DHT22;29856;52.144;5.430;2022-11-12T16:25:17;14.80;99.90
44190;DHT22;29856;52.144;5.430;2022-11-12T16:27:43;14.80;99.90
44190;DHT22;29856;52.144;5.430;2022-11-12T16:30:14;14.80;99.90
44190;DHT22;29856;52.144;5.430;2022-11-12T16:32:40;14.80;99.90
44190;DHT22;29856;52.144;5.430;2022-11-12T16:35:06;14.70;99.90
44190;DHT22;29856;52.144;5.430;2022-11-12T16:37:31;14.70;99.90
44190;DHT22;29856;52.144;5.430;2022-11-12T16:39:57;14.70;99.90
44190;DHT22;29856;52.144;5.430;2022-11-12T16:42:23;14.70;99.90
44190;DHT22;29856;52.144;5.430;2022-11-12T16:44:48;14.70;99.90
44190;DHT22;29856;52.144;5.430;2022-11-12T16:47:13;14.60;99.90
44190;DHT22;29856;52.144;5.430;2022-11-12T16:49:39;14.40;99.90
44190;DHT22;29856;52.144;5.430;2022-11-12T16:52:05;14.20;99.90
44190;DHT22;29856;52.144;5.430;2022-11-12T16:54:30;14.10;99.90
44190;DHT22;29856;52.144;5.430;2022-11-12T16:56:56;14.10;99.90
44190;DHT22;29856;52.144;5.430;2022-11-12T16:59:21;14.10;99.90
44190;DHT22;29856;52.144;5.430;2022-11-12T17:01:46;14.00;99.90
44190;DHT22;29856;52.144;5.430;2022-11-12T17:04:12;13.80;99.90
44190;DHT22;29856;52.144;5.430;2022-11-12T17:06:39;13.90;99.90
44190;DHT22;29856;52.144;5.430;2022-11-12T17:09:06;14.00;99.90
44190;DHT22;29856;52.144;5.430;2022-11-12T17:11:33;14.10;99.90
44190;DHT22;29856;52.144;5.430;2022-11-12T17:14:03;14.10;99.90
44190;DHT22;29856;52.144;5.430;2022-11-12T17:16:29;14.10;99.90
44190;DHT22;29856;52.144;5.430;2022-11-12T17:18:56;14.00;99.90
44190;DHT22;29856;52.144;5.430;2022-11-12T17:21:22;13.70;99.90
44190;DHT22;29856;52.144;5.430;2022-11-12T17:23:47;13.50;99.90
44190;DHT22;29856;52.144;5.430;2022-11-12T17:26:16;13.20;99.90
44190;DHT22;29856;52.144;5.430;2022-11-12T17:28:42;13.00;99.90
44190;DHT22;29856;52.144;5.430;2022-11-12T17:31:19;12.80;99.90
44190;DHT22;29856;52.144;5.430;2022-11-12T17:33:47;12.70;99.90
44190;DHT22;29856;52.144;5.430;2022-11-12T17:36:15;12.60;99.90
44190;DHT22;29856;52.144;5.430;2022-11-12T17:38:41;12.60;99.90
44190;DHT22;29856;52.144;5.430;2022-11-12T17:41:07;12.50;99.90
44190;DHT22;29856;52.144;5.430;2022-11-12T17:43:33;12.50;99.90